Airfield :
LOGIN :

Register | Disclaimer

   EN    FR    IT 

 










Legend :    VFR   Marginal VFR   IFR   Intensive IFR   Very Intensive IFR
Visi :
Ceiling :
>= 8 km
>= 3000ft
5 to 8 km
1000 to 3000 ft
1500m to 5 km
500 to 1000 ft
800 to 1500m
200 to 500 ft
< 800m
< 200 ft
Symbols :   Thunderstorms  Fog  Heavy snow  Heavy precipitations  Wind > 20 kt
SIGMETs :     Misc.  Thunderstorms  Icing  Turbulence  Mountain Waves  Volcanic Ashes







- Airport Elevation : 90 ft
- IATA code : NTE
- Download approach charts


LFRS - Nantes

CURRENT METAR :
  • 221200Z AUTO 15004KT 090V240 CAVOK 18/04 Q1028 NOSIG

EXPIRED METARs :
  • 221130Z AUTO VRB04KT CAVOK 17/01 Q1028 NOSIG
  • 221100Z AUTO VRB03KT CAVOK 16/01 Q1029 NOSIG
  • 221030Z AUTO VRB02KT CAVOK 16/04 Q1029 NOSIG
  • 221000Z AUTO VRB02KT CAVOK 14/05 Q1029 NOSIG
  • 220930Z AUTO VRB03KT CAVOK 13/06 Q1029 NOSIG

TAF TAF LFRS
Valid from the 22 at 12:00 until the 23 at 18:00 UTC


221100Z 2212/2318 04004KT CAVOK
PROB30
TEMPO 2303/2308 0500 FG VV///
ATIS : +33 2 40 05 12 74
No reported NOTAMs for that airfield.



MET'MAP, your aeronautical weather chart ! - Copyright ORBIFLY December 2007 - Disclaimer

ORBIFLY MET'MAP TEAM :

Programming & Development : Alexandra Zaïnal
Concept & Development : Baudouin d'Aumeries
Co-Development & Prog : Marc-Olivier Méhu
Technical & hardware support : Manuel Goepfert

Contact : metmap@orbifly.com




SOURCES & CREDITS :

   NOAA